createdAt,value
2018-11-04T00:00:13.927Z,39.60
2018-11-04T00:02:45.260Z,38.07
2018-11-04T00:05:16.941Z,40.97
2018-11-04T00:07:51.238Z,38.53
2018-11-04T00:10:22.690Z,42.70
2018-11-04T00:12:54.273Z,45.30
2018-11-04T00:15:25.380Z,44.83
2018-11-04T00:17:56.551Z,46.57
2018-11-04T00:20:27.754Z,45.80
2018-11-04T00:22:58.959Z,46.60
2018-11-04T00:25:29.945Z,46.50
2018-11-04T00:28:01.521Z,47.17
2018-11-04T00:30:32.530Z,46.73
2018-11-04T00:33:03.724Z,45.83
2018-11-04T00:35:34.907Z,40.63
2018-11-04T00:38:06.403Z,43.30
2018-11-04T00:40:37.487Z,44.90
2018-11-04T00:43:08.677Z,41.70
2018-11-04T00:45:39.840Z,44.77
2018-11-04T00:48:11.347Z,45.50
2018-11-04T00:50:42.636Z,43.33
2018-11-04T00:53:13.835Z,43.60
2018-11-04T00:55:53.307Z,44.07
2018-11-04T00:58:25.466Z,45.47
2018-11-04T01:00:56.646Z,46.53
2018-11-04T01:03:27.900Z,42.30
2018-11-04T01:05:59.045Z,42.30
2018-11-04T01:08:30.521Z,39.87
2018-11-04T01:11:01.610Z,40.33
2018-11-04T01:13:32.603Z,41.63
2018-11-04T01:16:03.809Z,42.53
2018-11-04T01:18:34.980Z,44.87
2018-11-04T01:21:06.580Z,46.63
2018-11-04T01:23:37.779Z,40.90
2018-11-04T01:26:08.992Z,40.13
2018-11-04T01:28:40.008Z,36.57
2018-11-04T01:31:11.137Z,38.20
2018-11-04T01:33:42.526Z,37.57
2018-11-04T01:36:13.721Z,37.27
2018-11-04T01:38:44.929Z,38.53
2018-11-04T01:41:16.108Z,38.20
2018-11-04T01:43:47.295Z,37.13
2018-11-04T01:46:18.494Z,38.00
2018-11-04T01:48:49.980Z,39.03
2018-11-04T01:51:21.070Z,41.30
2018-11-04T01:53:52.256Z,41.10
2018-11-04T01:56:23.472Z,38.63
2018-11-04T01:58:54.689Z,41.60
2018-11-04T02:01:25.708Z,41.13
2018-11-04T02:03:56.850Z,44.77
2018-11-04T02:06:28.055Z,41.70
2018-11-04T02:08:59.233Z,39.80
2018-11-04T02:11:30.230Z,40.93
2018-11-04T02:14:01.710Z,39.93
2018-11-04T02:16:32.988Z,42.37
2018-11-04T02:19:04.202Z,40.40
2018-11-04T02:21:35.380Z,39.90
2018-11-04T02:24:07.262Z,36.73
2018-11-04T02:26:38.563Z,42.07
2018-11-04T02:29:09.618Z,42.57
2018-11-04T02:31:40.938Z,45.17
2018-11-04T02:34:12.118Z,45.93
2018-11-04T02:36:43.336Z,45.03
2018-11-04T02:39:14.661Z,47.57
2018-11-04T02:41:46.207Z,47.07
2018-11-04T02:44:17.513Z,45.70
2018-11-04T02:46:48.478Z,41.07
2018-11-04T02:49:19.678Z,43.10
2018-11-04T02:51:50.927Z,42.93
2018-11-04T02:54:22.250Z,38.53
2018-11-04T02:56:53.267Z,40.30
2018-11-04T02:59:24.486Z,39.07
2018-11-04T03:01:55.597Z,39.73
2018-11-04T03:04:27.135Z,36.27
2018-11-04T03:06:58.258Z,40.40
2018-11-04T03:09:29.425Z,37.87
2018-11-04T03:12:00.408Z,37.50
2018-11-04T03:14:32.195Z,36.60
2018-11-04T03:17:03.550Z,41.37
2018-11-04T03:19:35.080Z,40.20
2018-11-04T03:22:06.632Z,42.50
2018-11-04T03:24:37.950Z,46.40
2018-11-04T03:27:09.137Z,41.40
2018-11-04T03:29:40.359Z,46.13
2018-11-04T03:32:12.199Z,52.27
2018-11-04T03:34:43.486Z,42.93
2018-11-04T03:37:14.742Z,49.77
2018-11-04T03:39:46.312Z,44.93
2018-11-04T03:42:17.308Z,44.73
2018-11-04T03:44:48.459Z,48.37
2018-11-04T03:47:19.643Z,51.40
2018-11-04T03:49:50.635Z,47.63
2018-11-04T03:52:21.634Z,50.80
2018-11-04T03:54:52.823Z,60.70
2018-11-04T03:57:24.031Z,55.37
2018-11-04T03:59:55.443Z,60.43
2018-11-04T04:02:26.617Z,66.80
2018-11-04T04:04:57.795Z,57.23
2018-11-04T04:07:28.979Z,55.33
2018-11-04T04:10:00.363Z,47.83
2018-11-04T04:12:31.573Z,40.17
2018-11-04T04:15:02.778Z,53.93
2018-11-04T04:17:33.940Z,38.20
2018-11-04T04:20:06.170Z,36.30
2018-11-04T04:22:37.319Z,36.40
2018-11-04T04:25:08.679Z,38.00
2018-11-04T04:27:39.887Z,33.40
2018-11-04T04:30:12.473Z,32.33
2018-11-04T04:32:43.646Z,44.90
2018-11-04T04:35:14.896Z,32.43
2018-11-04T04:37:46.737Z,34.50
2018-11-04T04:40:18.028Z,38.10
2018-11-04T04:42:49.222Z,39.73
2018-11-04T04:45:20.411Z,43.13
2018-11-04T04:47:51.607Z,41.60
2018-11-04T04:50:22.799Z,39.87
2018-11-04T04:52:53.992Z,43.93
2018-11-04T04:55:25.168Z,75.33
2018-11-04T04:57:56.175Z,51.33
2018-11-04T05:00:27.215Z,44.30
2018-11-04T05:02:58.166Z,48.53
2018-11-04T05:05:29.690Z,49.83
2018-11-04T05:08:00.942Z,44.90
2018-11-04T05:10:31.915Z,52.50
2018-11-04T05:13:03.123Z,92.83
2018-11-04T05:15:34.299Z,53.50
2018-11-04T05:18:05.867Z,59.60
2018-11-04T05:20:37.227Z,51.50
2018-11-04T05:23:08.804Z,44.80
2018-11-04T05:25:40.085Z,54.67
2018-11-04T05:28:11.311Z,38.90
2018-11-04T05:30:43.284Z,43.20
2018-11-04T05:33:14.426Z,52.87
2018-11-04T05:35:45.970Z,47.30
2018-11-04T05:38:17.256Z,66.57
2018-11-04T05:40:48.194Z,91.20
2018-11-04T05:43:19.524Z,76.77
2018-11-04T05:45:50.584Z,76.33
2018-11-04T05:48:21.587Z,106.70
2018-11-04T05:50:52.767Z,80.63
2018-11-04T05:53:23.967Z,101.60
2018-11-04T05:55:54.965Z,177.30
2018-11-04T05:58:26.261Z,218.67
2018-11-04T06:00:57.848Z,106.20
2018-11-04T06:03:29.440Z,137.80
2018-11-04T06:06:01.069Z,80.20
2018-11-04T06:08:32.291Z,129.23
2018-11-04T06:11:03.998Z,79.27
2018-11-04T06:13:35.320Z,66.10
2018-11-04T06:16:07.007Z,59.40
2018-11-04T06:18:38.310Z,51.57
2018-11-04T06:21:09.465Z,54.40
2018-11-04T06:23:40.668Z,54.97
2018-11-04T06:26:11.819Z,59.40
2018-11-04T06:28:42.809Z,52.17
2018-11-04T06:31:14.702Z,68.33
2018-11-04T06:33:45.790Z,40.73
2018-11-04T06:36:17.151Z,66.60
2018-11-04T06:38:48.383Z,63.00
2018-11-04T06:41:19.450Z,61.50
2018-11-04T06:43:50.406Z,80.53
2018-11-04T06:46:21.567Z,64.10
2018-11-04T06:48:52.756Z,86.93
2018-11-04T06:51:23.962Z,68.23
2018-11-04T06:53:55.155Z,115.40
2018-11-04T06:56:26.124Z,109.67
2018-11-04T06:58:57.129Z,69.53
2018-11-04T07:01:28.322Z,59.97
2018-11-04T07:04:26.863Z,105.30
2018-11-04T07:06:58.378Z,74.90
2018-11-04T07:09:29.910Z,68.67
2018-11-04T07:12:01.192Z,79.33
2018-11-04T07:14:32.208Z,60.43
2018-11-04T07:17:03.407Z,48.97
2018-11-04T07:19:34.388Z,44.77
2018-11-04T07:22:05.711Z,65.63
2018-11-04T07:24:36.774Z,42.97
2018-11-04T07:27:08.019Z,51.50
2018-11-04T07:29:39.647Z,47.83
2018-11-04T07:32:10.788Z,47.63
2018-11-04T07:34:41.743Z,80.13
2018-11-04T07:37:12.984Z,55.10
2018-11-04T07:39:44.137Z,52.07
2018-11-04T07:42:15.107Z,71.23
2018-11-04T07:44:46.304Z,71.50
2018-11-04T07:47:17.546Z,74.77
2018-11-04T07:49:48.687Z,77.53
2018-11-04T07:52:19.691Z,63.67
2018-11-04T07:54:50.703Z,48.73
2018-11-04T07:57:21.672Z,68.87
2018-11-04T07:59:52.863Z,66.80
2018-11-04T08:02:23.863Z,79.10
2018-11-04T08:04:55.063Z,77.57
2018-11-04T08:07:26.110Z,45.43
2018-11-04T08:09:57.108Z,52.67
2018-11-04T08:12:28.231Z,55.83
2018-11-04T08:14:59.504Z,63.17
2018-11-04T08:17:31.139Z,54.50
2018-11-04T08:20:02.407Z,46.50
2018-11-04T08:22:33.409Z,48.77
2018-11-04T08:25:04.442Z,52.10
2018-11-04T08:27:35.586Z,63.87
2018-11-04T08:30:08.042Z,74.27
2018-11-04T08:32:39.396Z,59.70
2018-11-04T08:35:10.373Z,54.70
2018-11-04T08:37:41.567Z,56.43
2018-11-04T08:40:12.565Z,61.73
2018-11-04T08:42:44.418Z,43.27
2018-11-04T08:45:15.704Z,50.83
2018-11-04T08:47:46.703Z,46.30
2018-11-04T08:50:17.885Z,45.63
2018-11-04T08:52:49.130Z,57.07
2018-11-04T08:55:20.481Z,60.43
2018-11-04T08:57:51.668Z,52.33
2018-11-04T09:00:22.850Z,50.20
2018-11-04T09:02:54.748Z,45.97
2018-11-04T09:05:25.835Z,49.17
2018-11-04T09:07:57.033Z,54.90
2018-11-04T09:10:28.214Z,46.80
2018-11-04T09:12:59.416Z,47.60
2018-11-04T09:15:30.606Z,50.40
2018-11-04T09:18:01.847Z,46.27
2018-11-04T09:20:32.782Z,50.83
2018-11-04T09:23:04.077Z,47.87
2018-11-04T09:25:35.162Z,45.27
2018-11-04T09:28:06.655Z,46.97
2018-11-04T09:30:37.782Z,46.40
2018-11-04T09:33:08.770Z,59.23
2018-11-04T09:35:40.831Z,44.03
2018-11-04T09:38:11.904Z,45.30
2018-11-04T09:40:43.093Z,44.27
2018-11-04T09:43:14.098Z,45.33
2018-11-04T09:45:45.288Z,38.77
2018-11-04T09:48:16.482Z,41.43
2018-11-04T09:50:47.709Z,39.40
2018-11-04T09:53:18.966Z,41.50
2018-11-04T09:55:50.255Z,41.53
2018-11-04T09:58:21.444Z,36.27
2018-11-04T10:00:52.645Z,42.43
2018-11-04T10:03:23.841Z,45.40
2018-11-04T10:10:43.655Z,37.53
2018-11-04T10:13:14.865Z,36.10
2018-11-04T10:15:45.844Z,36.57
2018-11-04T10:18:17.025Z,38.57
2018-11-04T10:20:48.585Z,38.00
2018-11-04T10:23:19.968Z,36.40
2018-11-04T10:25:50.982Z,34.37
2018-11-04T10:28:26.035Z,36.60
2018-11-04T10:30:57.111Z,37.23
2018-11-04T10:33:28.120Z,53.87
2018-11-04T10:35:59.110Z,39.83
2018-11-04T10:38:30.126Z,32.70
2018-11-04T10:41:01.314Z,36.07
2018-11-04T10:43:32.299Z,34.47
2018-11-04T10:46:03.319Z,37.93
2018-11-04T10:48:34.490Z,34.43
2018-11-04T10:51:06.053Z,39.57
2018-11-04T10:53:37.956Z,31.10
2018-11-04T10:56:09.030Z,29.00
2018-11-04T10:58:40.943Z,30.30
2018-11-04T11:01:12.815Z,27.97
2018-11-04T11:03:43.801Z,27.07
2018-11-04T11:06:15.279Z,26.43
2018-11-04T11:08:46.379Z,25.70
2018-11-04T11:11:17.372Z,23.77
2018-11-04T11:13:48.573Z,23.60
2018-11-04T11:16:19.762Z,21.60
2018-11-04T11:18:50.743Z,22.30
2018-11-04T11:21:21.951Z,22.47
2018-11-04T11:23:53.501Z,23.23
2018-11-04T11:26:24.724Z,21.77
2018-11-04T11:28:55.927Z,19.33
2018-11-04T11:31:27.218Z,19.77
2018-11-04T11:33:58.548Z,19.60
2018-11-04T11:36:29.690Z,19.97
2018-11-04T11:39:00.672Z,23.73
2018-11-04T11:41:31.872Z,18.70
2018-11-04T11:44:03.161Z,17.90
2018-11-04T11:46:34.651Z,18.40
2018-11-04T11:49:05.839Z,17.80
2018-11-04T11:51:37.223Z,19.00
2018-11-04T11:54:08.804Z,18.70
2018-11-04T11:56:40.003Z,21.20
2018-11-04T11:59:11.398Z,23.20
2018-11-04T12:01:42.525Z,27.83
2018-11-04T12:04:13.999Z,20.37
2018-11-04T12:06:45.173Z,17.50
2018-11-04T12:09:16.187Z,16.43
2018-11-04T12:11:47.355Z,17.67
2018-11-04T12:14:18.544Z,17.80
2018-11-04T12:16:49.755Z,17.10
2018-11-04T12:19:20.936Z,15.63
2018-11-04T12:21:52.255Z,14.67
2018-11-04T12:24:23.639Z,13.20
2018-11-04T12:26:55.312Z,12.93
2018-11-04T12:29:26.479Z,13.30
2018-11-04T12:31:57.735Z,13.23
2018-11-04T12:34:28.879Z,12.80
2018-11-04T12:37:00.060Z,13.23
2018-11-04T12:39:31.242Z,12.30
2018-11-04T12:42:02.402Z,12.20
2018-11-04T12:44:33.548Z,11.77
2018-11-04T12:47:04.977Z,12.27
2018-11-04T12:49:36.718Z,11.97
2018-11-04T12:52:08.331Z,11.47
2018-11-04T12:54:39.426Z,11.83
2018-11-04T12:57:11.292Z,12.30
2018-11-04T12:59:42.556Z,12.63
2018-11-04T13:02:13.572Z,14.53
2018-11-04T13:04:44.740Z,21.23
2018-11-04T13:07:17.025Z,21.97
2018-11-04T13:09:48.304Z,13.67
2018-11-04T13:12:19.313Z,16.67
2018-11-04T13:14:50.491Z,37.73
2018-11-04T13:17:21.695Z,17.00
2018-11-04T13:19:52.883Z,13.10
2018-11-04T13:22:24.079Z,15.13
2018-11-04T13:24:55.362Z,15.63
2018-11-04T13:27:27.163Z,13.27
2018-11-04T13:29:58.437Z,14.63
2018-11-04T13:32:29.631Z,11.97
2018-11-04T13:35:00.829Z,12.10
2018-11-04T13:37:31.811Z,12.80
2018-11-04T13:40:03.040Z,11.67
2018-11-04T13:42:34.205Z,11.47
2018-11-04T13:45:05.590Z,11.67
2018-11-04T13:47:37.022Z,15.17
2018-11-04T13:50:11.386Z,12.80
2018-11-04T13:52:42.897Z,12.87
2018-11-04T13:55:15.136Z,12.70
2018-11-04T13:57:46.476Z,12.63
2018-11-04T14:00:18.199Z,12.20
2018-11-04T14:02:50.106Z,11.87
2018-11-04T14:05:21.726Z,12.10
2018-11-04T14:07:53.034Z,11.90
2018-11-04T14:10:24.889Z,15.73
2018-11-04T14:12:56.559Z,12.90
2018-11-04T14:15:27.763Z,14.73
2018-11-04T14:17:58.952Z,14.97
2018-11-04T14:20:30.181Z,12.47
2018-11-04T14:23:01.362Z,11.47
2018-11-04T14:25:32.626Z,12.20
2018-11-04T14:28:03.955Z,13.47
2018-11-04T14:30:34.916Z,13.60
2018-11-04T14:33:06.046Z,14.67
2018-11-04T14:35:37.311Z,13.57
2018-11-04T14:38:08.487Z,11.90
2018-11-04T14:40:39.696Z,12.37
2018-11-04T14:43:10.879Z,11.73
2018-11-04T14:45:42.114Z,11.50
2018-11-04T14:48:13.453Z,12.43
2018-11-04T14:50:44.660Z,13.07
2018-11-04T14:53:15.879Z,12.47
2018-11-04T14:55:47.186Z,11.70
2018-11-04T14:58:18.219Z,13.07
2018-11-04T15:00:49.495Z,16.67
2018-11-04T15:03:20.635Z,23.20
2018-11-04T15:05:51.595Z,30.83
2018-11-04T15:08:22.704Z,35.20
2018-11-04T15:10:54.304Z,15.50
2018-11-04T15:13:25.583Z,103.93
2018-11-04T15:15:56.780Z,44.57
2018-11-04T15:18:28.005Z,47.53
2018-11-04T15:20:59.335Z,21.70
2018-11-04T15:23:30.531Z,12.93
2018-11-04T15:26:01.766Z,12.77
2018-11-04T15:28:33.192Z,11.83
2018-11-04T15:31:04.595Z,11.63
2018-11-04T15:33:36.117Z,10.70
2018-11-04T15:36:07.824Z,10.77
2018-11-04T15:38:39.109Z,10.70
2018-11-04T15:41:10.061Z,10.83
2018-11-04T15:43:41.241Z,11.67
2018-11-04T15:46:12.455Z,10.63
2018-11-04T15:48:43.650Z,12.50
2018-11-04T15:51:14.823Z,11.47
2018-11-04T15:53:45.820Z,10.70
2018-11-04T15:56:17.458Z,10.10
2018-11-04T15:58:48.932Z,10.63
2018-11-04T16:01:20.187Z,12.43
2018-11-04T16:03:51.373Z,11.33
2018-11-04T16:06:23.076Z,11.33
2018-11-04T16:08:54.173Z,8.97
2018-11-04T16:11:25.356Z,9.00
2018-11-04T16:13:56.336Z,9.87
2018-11-04T16:16:27.547Z,9.50
2018-11-04T16:18:58.843Z,9.47
2018-11-04T16:21:30.112Z,10.03
2018-11-04T16:24:01.298Z,10.50
2018-11-04T16:26:32.505Z,10.00
2018-11-04T16:29:03.744Z,10.40
2018-11-04T16:31:35.129Z,12.23
2018-11-04T16:34:06.576Z,9.47
2018-11-04T16:36:38.154Z,8.73
2018-11-04T16:39:10.203Z,8.43
2018-11-04T16:41:41.437Z,9.57
2018-11-04T16:44:13.229Z,9.03
2018-11-04T16:46:44.391Z,9.10
2018-11-04T16:49:15.384Z,9.90
2018-11-04T16:51:46.584Z,9.53
2018-11-04T16:54:17.779Z,10.47
2018-11-04T16:56:49.403Z,11.50
2018-11-04T16:59:20.923Z,11.93
2018-11-04T17:01:52.488Z,11.13
2018-11-04T17:04:23.646Z,12.40
2018-11-04T17:06:55.035Z,12.47
2018-11-04T17:09:26.312Z,13.80
2018-11-04T17:11:57.511Z,11.70
2018-11-04T17:14:28.691Z,14.13
2018-11-04T17:17:00.167Z,18.47
2018-11-04T17:19:31.472Z,15.30
2018-11-04T17:22:02.481Z,17.30
2018-11-04T17:24:33.455Z,18.60
2018-11-04T17:27:04.522Z,18.00
2018-11-04T17:29:35.694Z,18.37
2018-11-04T17:32:06.887Z,17.07
2018-11-04T17:34:38.042Z,16.47
2018-11-04T17:37:10.039Z,18.23
2018-11-04T17:39:41.199Z,16.50
2018-11-04T17:42:12.474Z,18.20
2018-11-04T17:44:43.645Z,20.20
2018-11-04T17:47:14.856Z,18.90
2018-11-04T17:49:46.160Z,20.57
2018-11-04T17:52:17.151Z,19.47
2018-11-04T17:54:48.367Z,20.33
2018-11-04T17:57:19.541Z,19.43
2018-11-04T17:59:51.614Z,23.60
2018-11-04T18:02:23.236Z,28.07
2018-11-04T18:04:54.592Z,29.27
2018-11-04T18:07:25.950Z,28.30
2018-11-04T18:09:57.430Z,31.83
2018-11-04T18:12:28.802Z,35.40
2018-11-04T18:15:00.064Z,36.67
2018-11-04T18:17:31.312Z,37.73
2018-11-04T18:20:02.941Z,38.33
2018-11-04T18:22:34.203Z,40.50
2018-11-04T18:25:09.576Z,38.50
2018-11-04T18:27:40.579Z,38.37
2018-11-04T18:30:15.400Z,36.47
2018-11-04T18:32:47.207Z,35.63
2018-11-04T18:35:18.365Z,30.73
2018-11-04T18:37:49.619Z,31.40
2018-11-04T18:40:20.824Z,29.77
2018-11-04T18:42:51.811Z,29.53
2018-11-04T18:45:22.998Z,33.73
2018-11-04T18:47:54.203Z,38.83
2018-11-04T18:50:25.421Z,32.97
2018-11-04T18:52:56.579Z,31.07
2018-11-04T18:55:27.569Z,29.17
2018-11-04T18:57:58.771Z,28.07
2018-11-04T19:00:30.013Z,26.40
2018-11-04T19:03:01.156Z,23.77
2018-11-04T19:05:32.245Z,24.90
2018-11-04T19:08:03.611Z,25.50
2018-11-04T19:10:34.932Z,24.00
2018-11-04T19:13:06.115Z,21.93
2018-11-04T19:15:37.298Z,38.00
2018-11-04T19:18:09.279Z,30.27
2018-11-04T19:20:40.307Z,28.60
2018-11-04T19:23:11.605Z,28.70
2018-11-04T19:25:42.663Z,27.63
2018-11-04T19:28:13.657Z,26.30
2018-11-04T19:30:45.304Z,27.67
2018-11-04T19:33:16.432Z,19.60
2018-11-04T19:35:47.632Z,20.33
2018-11-04T19:38:18.843Z,21.67
2018-11-04T19:40:50.212Z,31.53
2018-11-04T19:43:21.242Z,24.80
2018-11-04T19:45:52.401Z,23.30
2018-11-04T19:48:23.466Z,21.90
2018-11-04T19:50:54.862Z,26.40
2018-11-04T19:53:25.784Z,65.13
2018-11-04T19:55:57.383Z,60.93
2018-11-04T19:58:28.377Z,46.53
2018-11-04T20:00:59.913Z,44.90
2018-11-04T20:03:30.953Z,41.60
2018-11-04T20:06:02.443Z,21.00
2018-11-04T20:08:33.623Z,15.30
2018-11-04T20:11:05.136Z,21.57
2018-11-04T20:13:41.499Z,23.27
2018-11-04T20:16:12.664Z,20.13
2018-11-04T20:18:48.824Z,15.73
2018-11-04T20:21:20.126Z,18.53
2018-11-04T20:23:51.259Z,19.73
2018-11-04T20:26:23.302Z,18.77
2018-11-04T20:28:54.488Z,15.47
2018-11-04T20:31:31.388Z,12.30
2018-11-04T20:34:02.981Z,12.53
2018-11-04T20:36:34.234Z,20.53
2018-11-04T20:39:12.651Z,16.00
2018-11-04T20:41:44.504Z,21.10
2018-11-04T20:44:15.928Z,42.40
2018-11-04T20:46:47.720Z,18.67
2018-11-04T20:49:23.745Z,14.60
2018-11-04T20:51:55.191Z,15.17
2018-11-04T20:54:26.430Z,15.63
2018-11-04T20:57:02.429Z,16.13
2018-11-04T20:59:33.842Z,28.20
2018-11-04T21:02:05.593Z,18.43
2018-11-04T21:04:36.575Z,14.63
2018-11-04T21:07:08.420Z,18.30
2018-11-04T21:09:39.723Z,26.73
2018-11-04T21:12:10.888Z,19.83
2018-11-04T21:14:41.871Z,20.93
2018-11-04T21:17:13.064Z,24.17
2018-11-04T21:19:44.246Z,26.67
2018-11-04T21:22:15.640Z,22.90
2018-11-04T21:24:46.893Z,37.30
2018-11-04T21:27:18.032Z,41.63
2018-11-04T21:29:49.311Z,43.87
2018-11-04T21:32:20.592Z,22.80
2018-11-04T21:34:55.578Z,17.60
2018-11-04T21:37:27.055Z,23.50
2018-11-04T21:39:58.312Z,27.33
2018-11-04T21:42:29.656Z,20.80
2018-11-04T21:45:00.892Z,26.33
2018-11-04T21:47:32.419Z,26.83
2018-11-04T21:50:03.489Z,15.17
2018-11-04T21:52:34.658Z,19.70
2018-11-04T21:55:06.582Z,18.20
2018-11-04T21:57:37.868Z,15.03
2018-11-04T22:00:11.725Z,26.73
2018-11-04T22:02:43.240Z,18.70
2018-11-04T22:05:14.666Z,16.87
2018-11-04T22:07:45.931Z,18.63
2018-11-04T22:10:17.178Z,17.83
2018-11-04T22:12:48.591Z,20.13
2018-11-04T22:15:19.913Z,12.00
2018-11-04T22:17:51.097Z,17.37
2018-11-04T22:20:22.293Z,15.83
2018-11-04T22:22:53.480Z,13.37
2018-11-04T22:25:24.683Z,12.63
2018-11-04T22:27:55.868Z,9.97
2018-11-04T22:30:26.859Z,10.10
2018-11-04T22:32:58.167Z,11.40
2018-11-04T22:35:29.445Z,10.47
2018-11-04T22:38:00.644Z,11.13
2018-11-04T22:40:31.831Z,13.20
2018-11-04T22:43:02.839Z,10.40
2018-11-04T22:45:33.808Z,14.67
2018-11-04T22:48:05.507Z,11.70
2018-11-04T22:50:36.793Z,11.87
2018-11-04T22:53:08.020Z,10.60
2018-11-04T22:55:38.967Z,8.87
2018-11-04T22:58:10.200Z,9.13
2018-11-04T23:00:44.499Z,9.83
2018-11-04T23:03:15.825Z,8.73
2018-11-04T23:05:47.082Z,7.47
2018-11-04T23:08:18.572Z,7.33
2018-11-04T23:10:50.688Z,8.97
2018-11-04T23:13:21.665Z,9.13
2018-11-04T23:15:52.848Z,6.27
2018-11-04T23:18:23.857Z,6.00
2018-11-04T23:20:55.011Z,4.87
2018-11-04T23:23:26.364Z,5.60
2018-11-04T23:25:57.604Z,7.93
2018-11-04T23:28:28.790Z,6.43
2018-11-04T23:30:59.988Z,6.40
2018-11-04T23:33:31.524Z,6.00
2018-11-04T23:36:09.295Z,5.93
2018-11-04T23:38:40.237Z,7.07
2018-11-04T23:41:11.486Z,6.90
2018-11-04T23:43:42.649Z,6.80
2018-11-04T23:46:13.652Z,5.73
2018-11-04T23:48:44.818Z,6.07
2018-11-04T23:51:16.016Z,4.67
2018-11-04T23:53:47.194Z,4.60
2018-11-04T23:56:18.391Z,5.50
2018-11-04T23:58:49.579Z,5.77
